createdAt,value
2023-05-31T00:01:02.168Z,77.29
2023-05-31T00:03:28.828Z,77.68
2023-05-31T00:05:55.350Z,77.92
2023-05-31T00:08:21.843Z,78.02
2023-05-31T00:10:48.360Z,77.92
2023-05-31T00:13:15.043Z,77.99
2023-05-31T00:15:41.805Z,78.17
2023-05-31T00:18:08.291Z,78.67
2023-05-31T00:20:34.770Z,79.12
2023-05-31T00:23:01.396Z,79.54
2023-05-31T00:25:27.842Z,79.72
2023-05-31T00:27:56.136Z,80.32
2023-05-31T00:30:22.550Z,80.42
2023-05-31T00:32:49.154Z,80.55
2023-05-31T00:35:15.732Z,80.23
2023-05-31T00:37:42.176Z,80.37
2023-05-31T00:40:09.252Z,80.24
2023-05-31T00:42:35.990Z,80.08
2023-05-31T00:45:02.583Z,79.90
2023-05-31T00:47:29.764Z,80.90
2023-05-31T00:49:57.046Z,81.39
2023-05-31T00:52:24.279Z,81.28
2023-05-31T00:54:51.669Z,82.05
2023-05-31T00:57:18.376Z,81.85
2023-05-31T00:59:45.531Z,82.02
2023-05-31T01:02:15.691Z,81.78
2023-05-31T01:04:42.180Z,81.40
2023-05-31T01:07:09.396Z,81.21
2023-05-31T01:09:38.041Z,81.78
2023-05-31T01:12:32.357Z,82.53
2023-05-31T01:15:11.067Z,82.13
2023-05-31T01:17:46.044Z,82.22
2023-05-31T01:20:16.395Z,82.14
2023-05-31T01:23:07.917Z,82.79
2023-05-31T01:26:18.488Z,82.40
2023-05-31T01:28:50.538Z,82.23
2023-05-31T01:31:21.296Z,82.78
2023-05-31T01:33:49.728Z,82.52
2023-05-31T01:36:16.480Z,82.83
2023-05-31T01:38:42.939Z,82.80
2023-05-31T01:41:13.263Z,83.36
2023-05-31T01:43:42.382Z,81.86
2023-05-31T01:46:10.745Z,82.81
2023-05-31T01:48:38.175Z,82.98
2023-05-31T01:51:09.888Z,83.68
2023-05-31T01:53:36.588Z,83.64
2023-05-31T01:56:06.465Z,83.66
2023-05-31T01:58:35.612Z,83.74
2023-05-31T02:01:02.695Z,84.16
2023-05-31T02:03:29.813Z,84.14
2023-05-31T02:06:00.582Z,84.75
2023-05-31T02:08:28.000Z,84.62
2023-05-31T02:10:55.183Z,84.90
2023-05-31T02:13:26.823Z,84.96
2023-05-31T02:15:53.571Z,84.19
2023-05-31T02:18:20.057Z,84.24
2023-05-31T02:20:46.740Z,84.46
2023-05-31T02:23:13.317Z,84.52
2023-05-31T02:25:39.757Z,84.38
2023-05-31T02:28:06.282Z,84.54
2023-05-31T02:30:34.132Z,84.93
2023-05-31T02:33:03.354Z,84.89
2023-05-31T02:35:29.882Z,85.04
2023-05-31T02:37:56.509Z,84.63
2023-05-31T02:40:23.139Z,84.28
2023-05-31T02:42:49.615Z,84.41
2023-05-31T02:45:16.335Z,84.46
2023-05-31T02:47:42.982Z,84.91
2023-05-31T02:50:11.274Z,85.11
2023-05-31T02:52:38.499Z,84.84
2023-05-31T02:55:06.472Z,84.90
2023-05-31T02:57:32.986Z,85.09
2023-05-31T03:00:09.837Z,85.55
2023-05-31T03:02:36.417Z,85.63
2023-05-31T03:05:05.237Z,85.56
2023-05-31T03:07:31.768Z,85.89
2023-05-31T03:09:58.307Z,85.82
2023-05-31T03:12:24.800Z,85.82
2023-05-31T03:14:51.324Z,86.00
2023-05-31T03:17:17.817Z,86.09
2023-05-31T03:19:44.306Z,85.51
2023-05-31T03:22:10.770Z,85.66
2023-05-31T03:24:37.253Z,85.99
2023-05-31T03:27:04.101Z,85.86
2023-05-31T03:29:30.985Z,85.94
2023-05-31T03:31:57.501Z,85.86
2023-05-31T03:34:24.120Z,85.82
2023-05-31T03:36:51.912Z,86.37
2023-05-31T03:39:18.349Z,86.54
2023-05-31T03:41:44.787Z,86.33
2023-05-31T03:44:11.389Z,86.29
2023-05-31T03:46:37.819Z,86.42
2023-05-31T03:49:06.573Z,86.28
2023-05-31T03:51:33.115Z,86.53
2023-05-31T03:53:59.613Z,86.61
2023-05-31T03:56:26.358Z,86.84
2023-05-31T03:58:52.873Z,87.75
2023-05-31T04:01:19.318Z,87.81
2023-05-31T04:03:46.359Z,87.69
2023-05-31T04:06:13.023Z,87.45
2023-05-31T04:08:39.486Z,87.29
2023-05-31T04:11:05.993Z,87.59
2023-05-31T04:13:32.412Z,87.87
2023-05-31T04:15:59.584Z,87.94
2023-05-31T04:18:26.110Z,88.40
2023-05-31T04:20:52.881Z,89.33
2023-05-31T04:23:19.423Z,89.35
2023-05-31T04:25:46.172Z,89.70
2023-05-31T04:28:13.836Z,89.84
2023-05-31T04:30:40.526Z,90.44
2023-05-31T04:33:07.324Z,90.52
2023-05-31T04:35:34.863Z,91.21
2023-05-31T04:38:03.612Z,91.53
2023-05-31T04:40:32.988Z,91.96
2023-05-31T04:43:01.770Z,92.06
2023-05-31T04:45:28.466Z,92.84
2023-05-31T04:47:56.263Z,93.16
2023-05-31T04:50:22.846Z,93.33
2023-05-31T04:52:49.330Z,93.91
2023-05-31T04:55:15.879Z,94.05
2023-05-31T04:57:42.361Z,94.21
2023-05-31T05:00:11.123Z,94.44
2023-05-31T05:02:37.724Z,94.32
2023-05-31T05:05:08.190Z,94.54
2023-05-31T05:07:34.638Z,94.68
2023-05-31T05:10:01.733Z,94.90
2023-05-31T05:12:28.176Z,95.16
2023-05-31T05:14:54.582Z,95.15
2023-05-31T05:17:21.639Z,95.09
2023-05-31T05:19:48.115Z,94.99
2023-05-31T05:22:14.725Z,95.08
2023-05-31T05:24:41.248Z,94.99
2023-05-31T05:27:07.908Z,94.48
2023-05-31T05:29:34.481Z,94.33
2023-05-31T05:32:01.109Z,94.07
2023-05-31T05:34:27.828Z,93.93
2023-05-31T05:36:54.684Z,93.34
2023-05-31T05:39:21.704Z,93.07
2023-05-31T05:41:48.129Z,92.90
2023-05-31T05:44:14.623Z,92.28
2023-05-31T05:46:41.170Z,91.73
2023-05-31T05:49:07.625Z,90.96
2023-05-31T05:51:35.241Z,90.63
2023-05-31T05:54:01.705Z,90.12
2023-05-31T05:56:28.239Z,89.82
2023-05-31T05:58:54.689Z,89.04
2023-05-31T06:01:21.478Z,87.68
2023-05-31T06:03:51.609Z,87.12
2023-05-31T06:06:18.250Z,87.36
2023-05-31T06:08:46.141Z,85.58
2023-05-31T06:11:13.034Z,83.86
2023-05-31T06:13:39.573Z,82.45
2023-05-31T06:16:06.490Z,80.63
2023-05-31T06:18:32.998Z,80.13
2023-05-31T06:21:00.049Z,78.05
2023-05-31T06:23:26.956Z,77.20
2023-05-31T06:25:53.647Z,75.76
2023-05-31T06:28:20.282Z,74.74
2023-05-31T06:30:47.114Z,73.35
2023-05-31T06:33:13.925Z,72.95
2023-05-31T06:35:43.731Z,71.30
2023-05-31T06:38:15.956Z,70.36
2023-05-31T06:40:44.150Z,66.60
2023-05-31T06:43:13.777Z,66.19
2023-05-31T06:45:42.995Z,65.95
2023-05-31T06:48:10.432Z,66.64
2023-05-31T06:50:37.356Z,64.71
2023-05-31T06:53:04.064Z,64.14
2023-05-31T06:55:30.743Z,62.14
2023-05-31T06:57:57.326Z,61.54
2023-05-31T07:00:23.792Z,59.84
2023-05-31T07:02:50.719Z,58.46
2023-05-31T07:05:17.184Z,57.37
2023-05-31T07:07:43.632Z,56.69
2023-05-31T07:10:10.453Z,56.20
2023-05-31T07:12:36.932Z,55.57
2023-05-31T07:15:03.607Z,56.02
2023-05-31T07:17:30.666Z,54.60
2023-05-31T07:19:57.656Z,53.28
2023-05-31T07:22:24.178Z,53.65
2023-05-31T07:24:50.939Z,52.14
2023-05-31T07:27:17.541Z,52.42
2023-05-31T07:29:44.018Z,51.35
2023-05-31T07:32:10.590Z,51.43
2023-05-31T07:34:37.202Z,50.89
2023-05-31T07:37:03.705Z,50.75
2023-05-31T07:39:30.571Z,50.30
2023-05-31T07:41:59.551Z,50.74
2023-05-31T07:44:26.319Z,50.29
2023-05-31T07:46:52.831Z,49.24
2023-05-31T07:49:19.417Z,49.43
2023-05-31T07:51:46.141Z,49.63
2023-05-31T07:54:12.720Z,49.15
2023-05-31T07:56:39.586Z,48.18
2023-05-31T07:59:07.737Z,47.86
2023-05-31T08:01:34.882Z,47.94
2023-05-31T08:04:09.162Z,49.50
2023-05-31T08:06:36.070Z,49.31
2023-05-31T08:09:02.917Z,49.32
2023-05-31T08:11:29.631Z,48.69
2023-05-31T08:13:56.110Z,48.55
2023-05-31T08:16:22.905Z,49.02
2023-05-31T08:18:53.140Z,48.01
2023-05-31T08:21:19.727Z,46.74
2023-05-31T08:23:46.228Z,47.13
2023-05-31T08:26:12.937Z,46.62
2023-05-31T08:28:39.453Z,46.53
2023-05-31T08:31:06.119Z,46.36
2023-05-31T08:33:33.460Z,45.16
2023-05-31T08:36:00.953Z,46.45
2023-05-31T08:38:28.833Z,46.57
2023-05-31T08:41:02.066Z,45.87
2023-05-31T08:43:29.925Z,46.24
2023-05-31T08:45:56.861Z,45.51
2023-05-31T08:48:36.509Z,46.18
2023-05-31T08:51:06.302Z,45.67
2023-05-31T08:53:34.650Z,46.04
2023-05-31T08:56:05.646Z,46.35
2023-05-31T08:58:32.287Z,46.27
2023-05-31T09:00:59.870Z,46.41
2023-05-31T09:03:27.686Z,44.42
2023-05-31T09:05:56.516Z,44.15
2023-05-31T09:08:23.635Z,42.75
2023-05-31T09:10:51.081Z,41.31
2023-05-31T09:13:17.649Z,42.83
2023-05-31T09:15:48.564Z,40.88
2023-05-31T09:18:26.400Z,41.54
2023-05-31T09:20:54.600Z,39.97
2023-05-31T09:23:21.239Z,39.93
2023-05-31T09:25:48.597Z,39.40
2023-05-31T09:28:17.932Z,38.47
2023-05-31T09:30:44.734Z,39.24
2023-05-31T09:33:11.963Z,38.01
2023-05-31T09:35:38.556Z,37.93
2023-05-31T09:38:07.482Z,35.50
2023-05-31T09:40:34.786Z,35.85
2023-05-31T09:43:01.809Z,36.64
2023-05-31T09:45:29.622Z,35.93
2023-05-31T09:47:56.564Z,35.33
2023-05-31T09:50:24.341Z,35.09
2023-05-31T09:52:57.093Z,34.96
2023-05-31T09:55:23.801Z,33.94
2023-05-31T09:57:53.299Z,35.71
2023-05-31T10:00:20.397Z,35.08
2023-05-31T10:02:48.784Z,34.69
2023-05-31T10:05:16.739Z,32.97
2023-05-31T10:07:45.046Z,33.78
2023-05-31T10:10:12.349Z,33.81
2023-05-31T10:13:00.615Z,34.56
2023-05-31T10:15:32.980Z,33.18
2023-05-31T10:18:03.713Z,32.34
2023-05-31T10:20:53.081Z,33.48
2023-05-31T10:23:23.501Z,32.17
2023-05-31T10:26:22.723Z,32.40
2023-05-31T10:29:14.543Z,34.16
2023-05-31T10:31:51.212Z,32.67
2023-05-31T10:34:26.785Z,33.27
2023-05-31T10:36:55.372Z,33.16
2023-05-31T10:39:39.481Z,33.08
2023-05-31T10:42:44.215Z,32.54
2023-05-31T10:45:23.652Z,31.78
2023-05-31T10:48:04.185Z,32.85
2023-05-31T10:50:30.851Z,32.28
2023-05-31T10:53:12.158Z,34.19
2023-05-31T10:55:44.086Z,33.74
2023-05-31T10:58:28.125Z,34.23
2023-05-31T11:00:56.559Z,33.90
2023-05-31T11:03:27.273Z,34.54
2023-05-31T11:05:57.165Z,33.45
2023-05-31T11:08:24.256Z,34.61
2023-05-31T11:10:51.285Z,33.41
2023-05-31T11:13:18.076Z,32.95
2023-05-31T11:15:46.683Z,31.99
2023-05-31T11:18:24.765Z,32.38
2023-05-31T11:20:51.835Z,32.67
2023-05-31T11:23:18.460Z,33.27
2023-05-31T11:25:45.744Z,34.63
2023-05-31T11:28:18.462Z,34.01
2023-05-31T11:30:47.316Z,35.26
2023-05-31T11:33:16.863Z,35.75
2023-05-31T11:35:43.595Z,35.37
2023-05-31T11:38:10.250Z,35.78
2023-05-31T11:40:37.180Z,36.09
2023-05-31T11:43:08.372Z,37.05
2023-05-31T11:45:40.524Z,36.28
2023-05-31T11:48:26.196Z,36.32
2023-05-31T11:50:55.345Z,36.19
2023-05-31T11:53:22.451Z,36.48
2023-05-31T11:55:49.871Z,36.37
2023-05-31T11:58:20.305Z,36.41
2023-05-31T12:00:47.611Z,36.84
2023-05-31T12:03:18.723Z,37.05
2023-05-31T12:05:51.506Z,37.16
2023-05-31T12:08:18.329Z,37.40
2023-05-31T12:10:46.644Z,37.88
2023-05-31T12:13:16.637Z,36.97
2023-05-31T12:15:43.400Z,37.42
2023-05-31T12:18:10.005Z,37.61
2023-05-31T12:20:36.496Z,37.33
2023-05-31T12:23:13.561Z,37.27
2023-05-31T12:25:48.119Z,37.54
2023-05-31T12:28:17.595Z,38.02
2023-05-31T12:30:48.014Z,37.40
2023-05-31T12:33:15.182Z,36.87
2023-05-31T12:35:46.345Z,36.60
2023-05-31T12:38:13.560Z,36.95
2023-05-31T12:40:42.720Z,36.97
2023-05-31T12:43:10.173Z,35.73
2023-05-31T12:45:41.923Z,36.02
2023-05-31T12:48:10.515Z,36.21
2023-05-31T12:50:37.428Z,35.24
2023-05-31T12:53:07.521Z,36.01
2023-05-31T12:55:34.063Z,35.76
2023-05-31T12:58:04.039Z,35.79
2023-05-31T13:00:33.220Z,35.91
2023-05-31T13:02:59.942Z,36.17
2023-05-31T13:05:26.910Z,35.54
2023-05-31T13:07:54.927Z,35.95
2023-05-31T13:10:21.617Z,36.03
2023-05-31T13:12:48.075Z,35.51
2023-05-31T13:15:14.639Z,34.84
2023-05-31T13:17:41.150Z,34.76
2023-05-31T13:20:12.598Z,34.50
2023-05-31T13:22:40.085Z,34.26
2023-05-31T13:25:08.017Z,34.35
2023-05-31T13:27:34.707Z,34.42
2023-05-31T13:30:01.343Z,34.21
2023-05-31T13:32:29.090Z,34.62
2023-05-31T13:34:57.558Z,35.08
2023-05-31T13:37:25.877Z,35.14
2023-05-31T13:39:52.669Z,34.57
2023-05-31T13:42:19.455Z,35.38
2023-05-31T13:44:46.026Z,35.88
2023-05-31T13:47:12.494Z,34.70
2023-05-31T13:49:39.545Z,34.40
2023-05-31T13:52:08.831Z,35.32
2023-05-31T13:54:35.643Z,35.29
2023-05-31T13:57:02.524Z,35.43
2023-05-31T13:59:29.191Z,35.84
2023-05-31T14:01:55.792Z,34.94
2023-05-31T14:04:24.187Z,34.33
2023-05-31T14:06:51.406Z,35.03
2023-05-31T14:09:18.492Z,35.22
2023-05-31T14:11:45.153Z,34.94
2023-05-31T14:14:11.718Z,34.27
2023-05-31T14:16:38.260Z,35.50
2023-05-31T14:19:05.217Z,35.91
2023-05-31T14:21:33.400Z,36.42
2023-05-31T14:24:00.242Z,36.13
2023-05-31T14:26:28.207Z,36.24
2023-05-31T14:28:54.634Z,36.77
2023-05-31T14:31:21.445Z,36.68
2023-05-31T14:33:47.978Z,37.77
2023-05-31T14:36:14.972Z,38.06
2023-05-31T14:38:42.072Z,37.92
2023-05-31T14:41:08.562Z,37.51
2023-05-31T14:43:34.991Z,37.34
2023-05-31T14:46:01.509Z,37.56
2023-05-31T14:48:28.079Z,37.78
2023-05-31T14:50:54.515Z,37.51
2023-05-31T14:53:21.148Z,38.00
2023-05-31T14:55:47.634Z,39.18
2023-05-31T14:58:14.318Z,39.44
2023-05-31T15:00:40.797Z,39.37
2023-05-31T15:03:07.396Z,39.90
2023-05-31T15:05:33.994Z,39.61
2023-05-31T15:08:00.666Z,39.48
2023-05-31T15:10:27.595Z,40.26
2023-05-31T15:12:54.533Z,38.90
2023-05-31T15:15:21.229Z,39.17
2023-05-31T15:17:47.886Z,40.35
2023-05-31T15:20:14.412Z,39.86
2023-05-31T15:22:41.051Z,40.80
2023-05-31T15:25:07.970Z,40.75
2023-05-31T15:27:34.772Z,41.12
2023-05-31T15:30:01.416Z,41.62
2023-05-31T15:32:28.073Z,42.71
2023-05-31T15:34:54.579Z,42.88
2023-05-31T15:37:21.056Z,43.26
2023-05-31T15:39:47.664Z,43.69
2023-05-31T15:42:14.126Z,43.56
2023-05-31T15:44:40.738Z,43.51
2023-05-31T15:47:07.902Z,43.62
2023-05-31T15:49:37.121Z,43.79
2023-05-31T15:52:03.761Z,43.89
2023-05-31T15:54:30.296Z,43.91
2023-05-31T15:56:56.817Z,44.01
2023-05-31T15:59:23.326Z,44.67
2023-05-31T16:01:49.896Z,43.87
2023-05-31T16:04:16.525Z,45.44
2023-05-31T16:06:43.075Z,44.43
2023-05-31T16:09:09.843Z,44.45
2023-05-31T16:11:36.686Z,43.86
2023-05-31T16:14:03.304Z,43.76
2023-05-31T16:16:29.875Z,44.09
2023-05-31T16:18:56.539Z,44.97
2023-05-31T16:21:23.065Z,44.00
2023-05-31T16:23:49.565Z,44.21
2023-05-31T16:26:16.065Z,44.58
2023-05-31T16:28:42.569Z,45.39
2023-05-31T16:31:14.184Z,45.01
2023-05-31T16:33:41.592Z,44.81
2023-05-31T16:36:08.171Z,45.22
2023-05-31T16:38:34.740Z,44.66
2023-05-31T16:41:01.778Z,44.27
2023-05-31T16:43:28.646Z,44.71
2023-05-31T16:45:55.375Z,44.68
2023-05-31T16:48:22.042Z,45.38
2023-05-31T16:50:50.376Z,45.67
2023-05-31T16:53:18.070Z,44.74
2023-05-31T16:55:44.696Z,44.29
2023-05-31T16:58:11.194Z,44.32
2023-05-31T17:00:37.843Z,42.86
2023-05-31T17:03:04.850Z,43.32
2023-05-31T17:05:31.527Z,42.88
2023-05-31T17:07:58.059Z,43.46
2023-05-31T17:10:24.718Z,43.72
2023-05-31T17:12:51.298Z,43.84
2023-05-31T17:15:17.937Z,44.03
2023-05-31T17:17:44.731Z,44.65
2023-05-31T17:20:12.291Z,45.26
2023-05-31T17:22:39.385Z,45.34
2023-05-31T17:25:06.470Z,45.72
2023-05-31T17:27:34.384Z,46.26
2023-05-31T17:30:01.268Z,46.63
2023-05-31T17:32:28.017Z,47.05
2023-05-31T17:34:54.535Z,47.32
2023-05-31T17:37:21.021Z,47.86
2023-05-31T17:39:47.438Z,47.92
2023-05-31T17:42:13.976Z,48.96
2023-05-31T17:44:40.532Z,48.85
2023-05-31T17:47:07.475Z,48.81
2023-05-31T17:49:33.958Z,49.58
2023-05-31T17:52:00.451Z,49.47
2023-05-31T17:54:26.868Z,49.70
2023-05-31T17:56:53.413Z,49.76
2023-05-31T17:59:22.253Z,49.65
2023-05-31T18:01:48.849Z,50.64
2023-05-31T18:04:15.506Z,50.58
2023-05-31T18:06:42.295Z,51.15
2023-05-31T18:09:09.298Z,51.11
2023-05-31T18:11:36.600Z,51.80
2023-05-31T18:14:03.387Z,52.10
2023-05-31T18:16:31.658Z,52.28
2023-05-31T18:18:58.427Z,52.67
2023-05-31T18:21:25.124Z,52.96
2023-05-31T18:23:52.043Z,53.51
2023-05-31T18:26:19.791Z,53.84
2023-05-31T18:28:48.635Z,54.05
2023-05-31T18:31:15.435Z,53.82
2023-05-31T18:33:42.016Z,55.29
2023-05-31T18:36:08.565Z,55.21
2023-05-31T18:38:47.463Z,55.50
2023-05-31T18:41:14.983Z,55.92
2023-05-31T18:43:42.065Z,56.46
2023-05-31T18:46:08.577Z,56.84
2023-05-31T18:48:37.400Z,57.46
2023-05-31T18:51:05.599Z,58.54
2023-05-31T18:53:33.617Z,59.63
2023-05-31T18:56:00.933Z,59.78
2023-05-31T18:58:27.940Z,60.59
2023-05-31T19:00:54.665Z,60.92
2023-05-31T19:03:21.321Z,61.69
2023-05-31T19:05:48.079Z,62.23
2023-05-31T19:08:14.580Z,62.61
2023-05-31T19:10:41.194Z,63.43
2023-05-31T19:13:09.613Z,63.96
2023-05-31T19:15:36.104Z,64.78
2023-05-31T19:18:16.770Z,65.38
2023-05-31T19:20:48.612Z,65.95
2023-05-31T19:23:16.915Z,66.22
2023-05-31T19:25:43.733Z,67.54
2023-05-31T19:28:10.547Z,67.75
2023-05-31T19:30:37.821Z,68.00
2023-05-31T19:33:04.516Z,68.21
2023-05-31T19:35:31.146Z,68.58
2023-05-31T19:37:57.772Z,69.44
2023-05-31T19:40:24.280Z,70.27
2023-05-31T19:42:51.039Z,70.60
2023-05-31T19:45:19.190Z,71.07
2023-05-31T19:47:47.505Z,71.13
2023-05-31T19:50:14.056Z,71.30
2023-05-31T19:52:40.688Z,72.62
2023-05-31T19:55:08.680Z,73.12
2023-05-31T19:57:35.422Z,72.16
2023-05-31T20:00:04.163Z,72.63
2023-05-31T20:02:30.694Z,73.46
2023-05-31T20:04:57.171Z,73.23
2023-05-31T20:07:23.767Z,72.78
2023-05-31T20:09:50.431Z,72.51
2023-05-31T20:12:17.380Z,72.91
2023-05-31T20:14:43.908Z,72.68
2023-05-31T20:17:10.912Z,72.39
2023-05-31T20:19:37.503Z,72.47
2023-05-31T20:22:04.205Z,72.87
2023-05-31T20:24:31.525Z,72.64
2023-05-31T20:26:57.938Z,72.48
2023-05-31T20:29:24.454Z,72.66
2023-05-31T20:31:51.011Z,72.45
2023-05-31T20:34:17.525Z,72.39
2023-05-31T20:36:44.071Z,72.44
2023-05-31T20:39:10.753Z,72.35
2023-05-31T20:41:37.439Z,71.66
2023-05-31T20:44:04.148Z,72.19
2023-05-31T20:46:30.808Z,72.28
2023-05-31T20:48:57.709Z,72.26
2023-05-31T20:51:24.158Z,71.96
2023-05-31T20:53:50.675Z,72.96
2023-05-31T20:56:17.706Z,73.43
2023-05-31T20:58:44.660Z,73.42
2023-05-31T21:01:15.101Z,73.36
2023-05-31T21:03:41.807Z,73.25
2023-05-31T21:06:08.480Z,73.55
2023-05-31T21:08:35.051Z,73.16
2023-05-31T21:11:01.906Z,73.88
2023-05-31T21:13:28.350Z,73.33
2023-05-31T21:15:54.877Z,74.20
2023-05-31T21:18:21.373Z,73.91
2023-05-31T21:20:47.846Z,73.46
2023-05-31T21:23:14.854Z,73.16
2023-05-31T21:25:41.425Z,73.45
2023-05-31T21:28:07.904Z,73.68
2023-05-31T21:30:34.362Z,73.54
2023-05-31T21:33:01.068Z,73.30
2023-05-31T21:35:27.635Z,73.46
2023-05-31T21:37:56.845Z,74.08
2023-05-31T21:40:24.442Z,73.90
2023-05-31T21:42:51.400Z,74.42
2023-05-31T21:45:18.020Z,74.30
2023-05-31T21:47:44.671Z,74.54
2023-05-31T21:50:11.369Z,74.57
2023-05-31T21:52:37.904Z,74.48
2023-05-31T21:55:06.432Z,74.20
2023-05-31T21:57:33.011Z,73.87
2023-05-31T22:00:00.459Z,73.66
2023-05-31T22:02:26.905Z,74.25
2023-05-31T22:04:53.798Z,74.40
2023-05-31T22:07:20.563Z,74.47
2023-05-31T22:09:47.217Z,74.56
2023-05-31T22:12:13.640Z,74.76
2023-05-31T22:14:41.052Z,74.69
2023-05-31T22:17:08.379Z,74.66
2023-05-31T22:19:37.991Z,74.77
2023-05-31T22:22:05.922Z,74.25
2023-05-31T22:24:32.504Z,74.37
2023-05-31T22:26:58.962Z,74.15
2023-05-31T22:29:25.581Z,74.29
2023-05-31T22:31:52.425Z,74.37
2023-05-31T22:34:20.060Z,74.25
2023-05-31T22:36:46.884Z,74.16
2023-05-31T22:39:13.721Z,73.56
2023-05-31T22:41:40.321Z,74.03
2023-05-31T22:44:07.882Z,74.07
2023-05-31T22:46:35.362Z,74.52
2023-05-31T22:49:02.060Z,74.01
2023-05-31T22:51:30.261Z,74.49
2023-05-31T22:53:56.938Z,74.81
2023-05-31T22:56:23.415Z,75.11
2023-05-31T22:58:49.922Z,74.86
2023-05-31T23:01:16.404Z,75.48
2023-05-31T23:03:43.190Z,75.18
2023-05-31T23:06:13.337Z,75.31
2023-05-31T23:08:44.360Z,75.01
2023-05-31T23:11:16.173Z,74.95
2023-05-31T23:13:43.214Z,74.63
2023-05-31T23:16:10.029Z,74.81
2023-05-31T23:18:36.625Z,74.75
2023-05-31T23:21:03.814Z,74.59
2023-05-31T23:23:30.461Z,74.78
2023-05-31T23:25:57.069Z,73.92
2023-05-31T23:28:23.508Z,74.52
2023-05-31T23:30:50.004Z,74.71
2023-05-31T23:33:17.415Z,74.36
2023-05-31T23:35:44.631Z,74.60
2023-05-31T23:38:11.453Z,74.22
2023-05-31T23:40:37.946Z,74.40
2023-05-31T23:43:04.427Z,74.21
2023-05-31T23:45:31.208Z,73.80
2023-05-31T23:47:57.866Z,73.93
2023-05-31T23:50:25.942Z,74.07
2023-05-31T23:52:52.581Z,73.88
2023-05-31T23:55:19.070Z,73.97
2023-05-31T23:57:45.512Z,73.70
